This is the latest recevied weather packets stored in our database for station/object LKCS. If no packets are shown the sender has not sent any weather packets the latest 10 day(s).
| Time | Temp. | Humidity | Pressure | Rain* | Wind** | Luminosity | Snow |
|---|---|---|---|---|---|---|---|
| 1787461385 | 10° C | 87% | 1023 hPa | - | - | - | - |
| 1787459551 | 7.78° C | 93% | 1022 hPa | - | - | - | - |
| 1787457800 | 8.89° C | 93% | 1022 hPa | - | - | - | - |
| 1787455985 | 8.89° C | 93% | 1022 hPa | - | - | - | - |
| 1787454158 | 8.89° C | 93% | 1022 hPa | - | - | - | - |
| 1787452349 | 8.89° C | 93% | 1022 hPa | - | - | - | - |
| 1787450586 | 8.89° C | 93% | 1022 hPa | - | - | - | - |
| 1787448785 | 10° C | 87% | 1022 hPa | - | - | - | - |
| 1787446968 | 10° C | 87% | 1022 hPa | - | - | - | - |
| 1787445150 | 10° C | 87% | 1022 hPa | - | - | - | - |
| 1787443386 | 11.11° C | 87% | 1022 hPa | - | - | - | - |
| 1787441584 | 11.11° C | 87% | 1022 hPa | - | - | - | - |
| 1787439752 | 11.11° C | 87% | 1022 hPa | - | - | - | - |
| 1787437950 | 11.11° C | 87% | 1022 hPa | - | - | - | - |
| 1787436185 | 11.11° C | 87% | 1022 hPa | - | - | - | - |
| 1787434384 | 12.22° C | 87% | 1022 hPa | - | - | - | - |
| 1787432560 | 12.22° C | 87% | 1022 hPa | - | - | - | - |
| 1787430784 | 12.78° C | 87% | 1021 hPa | - | - | - | - |
| 1787428959 | 12.78° C | 82% | 1021 hPa | - | - | - | - |
| 1787427158 | 12.78° C | 82% | 1021 hPa | - | - | - | - |
| 1787425387 | 13.89° C | 76% | 1020 hPa | - | - | - | - |
| 1787423585 | 16.11° C | 67% | 1020 hPa | - | - | - | - |
| 1787421767 | 17.22° C | 63% | 1020 hPa | - | - | - | - |
| 1787419964 | 17.78° C | 63% | 1019 hPa | - | - | - | - |
| 1787418159 | 18.89° C | 55% | 1019 hPa | - | - | - | - |
* Rain since midnight (hover to see other rain measurements)
** Current wind speed in m/s (hover to see current wind gust speed)